sensor_id;sensor_type;location;lat;lon;timestamp;P1;durP1;ratioP1;P2;durP2;ratioP2
12768;SDS011;6448;48.916;8.990;2024-03-17T00:00:03;2.27;;;2.17;;
12768;SDS011;6448;48.916;8.990;2024-03-17T00:01:05;2.20;;;2.10;;
12768;SDS011;6448;48.916;8.990;2024-03-17T00:02:08;2.25;;;2.10;;
12768;SDS011;6448;48.916;8.990;2024-03-17T00:03:09;2.40;;;2.20;;
12768;SDS011;6448;48.916;8.990;2024-03-17T00:04:10;2.20;;;2.10;;
12768;SDS011;6448;48.916;8.990;2024-03-17T00:05:10;2.30;;;2.20;;
12768;SDS011;6448;48.916;8.990;2024-03-17T00:06:13;2.22;;;2.13;;
12768;SDS011;6448;48.916;8.990;2024-03-17T00:07:14;2.53;;;2.35;;
12768;SDS011;6448;48.916;8.990;2024-03-17T00:08:15;2.60;;;2.40;;
12768;SDS011;6448;48.916;8.990;2024-03-17T00:09:18;2.30;;;2.15;;
12768;SDS011;6448;48.916;8.990;2024-03-17T00:10:20;2.47;;;2.22;;
12768;SDS011;6448;48.916;8.990;2024-03-17T00:11:21;2.50;;;2.30;;
12768;SDS011;6448;48.916;8.990;2024-03-17T00:12:22;2.47;;;2.28;;
12768;SDS011;6448;48.916;8.990;2024-03-17T00:13:23;2.58;;;2.38;;
12768;SDS011;6448;48.916;8.990;2024-03-17T00:14:25;2.60;;;2.40;;
12768;SDS011;6448;48.916;8.990;2024-03-17T00:15:27;2.50;;;2.30;;
12768;SDS011;6448;48.916;8.990;2024-03-17T00:16:28;2.58;;;2.38;;
12768;SDS011;6448;48.916;8.990;2024-03-17T00:17:31;2.50;;;2.30;;
12768;SDS011;6448;48.916;8.990;2024-03-17T00:18:32;2.57;;;2.37;;
12768;SDS011;6448;48.916;8.990;2024-03-17T00:19:33;2.43;;;2.30;;
12768;SDS011;6448;48.916;8.990;2024-03-17T00:20:34;2.53;;;2.33;;
12768;SDS011;6448;48.916;8.990;2024-03-17T00:21:36;2.33;;;2.13;;
12768;SDS011;6448;48.916;8.990;2024-03-17T00:22:36;2.20;;;2.00;;
12768;SDS011;6448;48.916;8.990;2024-03-17T00:23:39;2.40;;;2.20;;
12768;SDS011;6448;48.916;8.990;2024-03-17T00:24:40;2.60;;;2.40;;
12768;SDS011;6448;48.916;8.990;2024-03-17T00:25:43;3.42;;;3.20;;
12768;SDS011;6448;48.916;8.990;2024-03-17T00:26:44;3.80;;;3.50;;
12768;SDS011;6448;48.916;8.990;2024-03-17T00:27:45;4.32;;;4.00;;
12768;SDS011;6448;48.916;8.990;2024-03-17T00:28:48;4.50;;;4.20;;
12768;SDS011;6448;48.916;8.990;2024-03-17T00:29:51;4.30;;;4.00;;
12768;SDS011;6448;48.916;8.990;2024-03-17T00:30:52;4.50;;;4.20;;
12768;SDS011;6448;48.916;8.990;2024-03-17T00:31:52;4.57;;;4.27;;
12768;SDS011;6448;48.916;8.990;2024-03-17T00:32:55;4.30;;;4.00;;
12768;SDS011;6448;48.916;8.990;2024-03-17T00:33:58;4.90;;;4.50;;
12768;SDS011;6448;48.916;8.990;2024-03-17T00:34:59;5.10;;;4.60;;
12768;SDS011;6448;48.916;8.990;2024-03-17T00:35:59;4.50;;;4.20;;
12768;SDS011;6448;48.916;8.990;2024-03-17T00:37:01;5.18;;;4.78;;
12768;SDS011;6448;48.916;8.990;2024-03-17T00:38:03;5.15;;;4.80;;
12768;SDS011;6448;48.916;8.990;2024-03-17T00:39:10;4.80;;;4.50;;
12768;SDS011;6448;48.916;8.990;2024-03-17T00:40:11;5.00;;;4.60;;
12768;SDS011;6448;48.916;8.990;2024-03-17T00:41:12;4.70;;;4.40;;
12768;SDS011;6448;48.916;8.990;2024-03-17T00:42:13;4.90;;;4.60;;
12768;SDS011;6448;48.916;8.990;2024-03-17T00:43:14;4.80;;;4.50;;
12768;SDS011;6448;48.916;8.990;2024-03-17T00:44:16;5.00;;;4.70;;
12768;SDS011;6448;48.916;8.990;2024-03-17T00:45:17;5.13;;;4.72;;
12768;SDS011;6448;48.916;8.990;2024-03-17T00:46:18;5.32;;;4.93;;
12768;SDS011;6448;48.916;8.990;2024-03-17T00:47:19;5.20;;;4.80;;
12768;SDS011;6448;48.916;8.990;2024-03-17T00:48:23;4.90;;;4.50;;
12768;SDS011;6448;48.916;8.990;2024-03-17T00:49:23;4.60;;;4.30;;
12768;SDS011;6448;48.916;8.990;2024-03-17T00:50:24;4.40;;;4.10;;
12768;SDS011;6448;48.916;8.990;2024-03-17T00:51:26;4.15;;;3.85;;
12768;SDS011;6448;48.916;8.990;2024-03-17T00:52:27;4.15;;;3.85;;
12768;SDS011;6448;48.916;8.990;2024-03-17T00:53:28;3.60;;;3.40;;
12768;SDS011;6448;48.916;8.990;2024-03-17T00:54:30;3.47;;;3.28;;
12768;SDS011;6448;48.916;8.990;2024-03-17T00:55:31;3.47;;;3.27;;
12768;SDS011;6448;48.916;8.990;2024-03-17T00:56:32;3.60;;;3.40;;
12768;SDS011;6448;48.916;8.990;2024-03-17T00:57:33;3.55;;;3.35;;
12768;SDS011;6448;48.916;8.990;2024-03-17T00:58:35;3.65;;;3.45;;
12768;SDS011;6448;48.916;8.990;2024-03-17T00:59:35;3.70;;;3.40;;
12768;SDS011;6448;48.916;8.990;2024-03-17T01:00:36;3.40;;;3.20;;
12768;SDS011;6448;48.916;8.990;2024-03-17T01:01:37;3.28;;;3.08;;
12768;SDS011;6448;48.916;8.990;2024-03-17T01:02:39;3.20;;;3.00;;
12768;SDS011;6448;48.916;8.990;2024-03-17T01:03:41;3.35;;;3.15;;
12768;SDS011;6448;48.916;8.990;2024-03-17T01:04:42;3.40;;;3.20;;
12768;SDS011;6448;48.916;8.990;2024-03-17T01:05:43;3.28;;;3.08;;
12768;SDS011;6448;48.916;8.990;2024-03-17T01:06:47;3.10;;;2.90;;
12768;SDS011;6448;48.916;8.990;2024-03-17T01:07:48;3.00;;;2.80;;
12768;SDS011;6448;48.916;8.990;2024-03-17T01:08:49;3.40;;;3.20;;
12768;SDS011;6448;48.916;8.990;2024-03-17T01:09:52;3.10;;;2.90;;
12768;SDS011;6448;48.916;8.990;2024-03-17T01:10:54;3.22;;;3.03;;
12768;SDS011;6448;48.916;8.990;2024-03-17T01:11:55;3.17;;;2.97;;
12768;SDS011;6448;48.916;8.990;2024-03-17T01:12:55;3.40;;;3.20;;
12768;SDS011;6448;48.916;8.990;2024-03-17T01:13:57;3.95;;;3.65;;
12768;SDS011;6448;48.916;8.990;2024-03-17T01:14:58;4.57;;;4.27;;
12768;SDS011;6448;48.916;8.990;2024-03-17T01:15:59;4.40;;;4.10;;
12768;SDS011;6448;48.916;8.990;2024-03-17T01:17:01;4.40;;;4.10;;
12768;SDS011;6448;48.916;8.990;2024-03-17T01:18:04;4.38;;;4.07;;
12768;SDS011;6448;48.916;8.990;2024-03-17T01:19:07;4.10;;;3.80;;
12768;SDS011;6448;48.916;8.990;2024-03-17T01:20:08;3.65;;;3.45;;
12768;SDS011;6448;48.916;8.990;2024-03-17T01:21:11;3.80;;;3.50;;
12768;SDS011;6448;48.916;8.990;2024-03-17T01:22:12;3.20;;;3.00;;
12768;SDS011;6448;48.916;8.990;2024-03-17T01:23:12;3.57;;;3.27;;
12768;SDS011;6448;48.916;8.990;2024-03-17T01:24:13;3.50;;;3.30;;
12768;SDS011;6448;48.916;8.990;2024-03-17T01:25:16;3.65;;;3.45;;
12768;SDS011;6448;48.916;8.990;2024-03-17T01:26:17;3.90;;;3.60;;
12768;SDS011;6448;48.916;8.990;2024-03-17T01:27:18;3.95;;;3.65;;
12768;SDS011;6448;48.916;8.990;2024-03-17T01:28:20;4.57;;;4.20;;
12768;SDS011;6448;48.916;8.990;2024-03-17T01:29:20;4.00;;;3.70;;
12768;SDS011;6448;48.916;8.990;2024-03-17T01:30:21;4.00;;;3.70;;
12768;SDS011;6448;48.916;8.990;2024-03-17T01:31:22;4.13;;;3.83;;
12768;SDS011;6448;48.916;8.990;2024-03-17T01:32:25;3.95;;;3.65;;
12768;SDS011;6448;48.916;8.990;2024-03-17T01:33:26;3.90;;;3.60;;
12768;SDS011;6448;48.916;8.990;2024-03-17T01:34:28;4.10;;;3.80;;
12768;SDS011;6448;48.916;8.990;2024-03-17T01:35:28;4.10;;;3.80;;
12768;SDS011;6448;48.916;8.990;2024-03-17T01:36:30;4.05;;;3.75;;
12768;SDS011;6448;48.916;8.990;2024-03-17T01:37:31;4.10;;;3.80;;
12768;SDS011;6448;48.916;8.990;2024-03-17T01:38:32;3.92;;;3.65;;
12768;SDS011;6448;48.916;8.990;2024-03-17T01:39:34;3.85;;;3.55;;
12768;SDS011;6448;48.916;8.990;2024-03-17T01:40:34;3.60;;;3.30;;
12768;SDS011;6448;48.916;8.990;2024-03-17T01:41:35;3.10;;;2.90;;
12768;SDS011;6448;48.916;8.990;2024-03-17T01:42:37;3.20;;;3.00;;
12768;SDS011;6448;48.916;8.990;2024-03-17T01:43:38;2.95;;;2.75;;
12768;SDS011;6448;48.916;8.990;2024-03-17T01:44:39;2.80;;;2.60;;
12768;SDS011;6448;48.916;8.990;2024-03-17T01:45:41;2.75;;;2.55;;
12768;SDS011;6448;48.916;8.990;2024-03-17T01:46:43;3.13;;;2.92;;
12768;SDS011;6448;48.916;8.990;2024-03-17T01:47:44;3.03;;;2.83;;
12768;SDS011;6448;48.916;8.990;2024-03-17T01:48:45;3.42;;;3.22;;
12768;SDS011;6448;48.916;8.990;2024-03-17T01:49:48;3.70;;;3.40;;
12768;SDS011;6448;48.916;8.990;2024-03-17T01:50:51;3.40;;;3.20;;
12768;SDS011;6448;48.916;8.990;2024-03-17T01:51:53;3.78;;;3.47;;
12768;SDS011;6448;48.916;8.990;2024-03-17T01:52:55;3.85;;;3.55;;
12768;SDS011;6448;48.916;8.990;2024-03-17T01:53:59;3.80;;;3.50;;
12768;SDS011;6448;48.916;8.990;2024-03-17T01:55:00;3.70;;;3.40;;
12768;SDS011;6448;48.916;8.990;2024-03-17T01:56:03;3.80;;;3.50;;
12768;SDS011;6448;48.916;8.990;2024-03-17T01:57:05;3.70;;;3.40;;
12768;SDS011;6448;48.916;8.990;2024-03-17T01:58:06;4.00;;;3.70;;
12768;SDS011;6448;48.916;8.990;2024-03-17T01:59:07;4.15;;;3.85;;
12768;SDS011;6448;48.916;8.990;2024-03-17T02:00:09;3.85;;;3.55;;
12768;SDS011;6448;48.916;8.990;2024-03-17T02:01:12;3.72;;;3.53;;
12768;SDS011;6448;48.916;8.990;2024-03-17T02:02:14;3.60;;;3.40;;
12768;SDS011;6448;48.916;8.990;2024-03-17T02:03:15;3.30;;;3.10;;
12768;SDS011;6448;48.916;8.990;2024-03-17T02:04:17;3.92;;;3.63;;
12768;SDS011;6448;48.916;8.990;2024-03-17T02:05:19;3.75;;;3.45;;
12768;SDS011;6448;48.916;8.990;2024-03-17T02:06:20;3.85;;;3.55;;
12768;SDS011;6448;48.916;8.990;2024-03-17T02:07:21;3.42;;;3.22;;
12768;SDS011;6448;48.916;8.990;2024-03-17T02:08:21;3.50;;;3.30;;
12768;SDS011;6448;48.916;8.990;2024-03-17T02:09:25;3.78;;;3.47;;
12768;SDS011;6448;48.916;8.990;2024-03-17T02:10:26;3.20;;;3.00;;
12768;SDS011;6448;48.916;8.990;2024-03-17T02:11:27;3.10;;;2.90;;
12768;SDS011;6448;48.916;8.990;2024-03-17T02:12:29;2.92;;;2.72;;
12768;SDS011;6448;48.916;8.990;2024-03-17T02:13:31;3.10;;;2.90;;
12768;SDS011;6448;48.916;8.990;2024-03-17T02:14:33;2.97;;;2.78;;
12768;SDS011;6448;48.916;8.990;2024-03-17T02:15:34;3.23;;;3.03;;
12768;SDS011;6448;48.916;8.990;2024-03-17T02:16:36;3.13;;;2.92;;
12768;SDS011;6448;48.916;8.990;2024-03-17T02:17:37;3.20;;;3.00;;
12768;SDS011;6448;48.916;8.990;2024-03-17T02:18:37;2.97;;;2.77;;
12768;SDS011;6448;48.916;8.990;2024-03-17T02:19:39;3.08;;;2.88;;
12768;SDS011;6448;48.916;8.990;2024-03-17T02:20:42;3.13;;;2.92;;
12768;SDS011;6448;48.916;8.990;2024-03-17T02:21:59;3.25;;;2.95;;
12768;SDS011;6448;48.916;8.990;2024-03-17T02:23:01;3.00;;;2.80;;
12768;SDS011;6448;48.916;8.990;2024-03-17T02:24:03;3.40;;;3.10;;
12768;SDS011;6448;48.916;8.990;2024-03-17T02:25:05;3.20;;;3.00;;
12768;SDS011;6448;48.916;8.990;2024-03-17T02:26:08;3.10;;;2.90;;
12768;SDS011;6448;48.916;8.990;2024-03-17T02:27:09;3.50;;;3.20;;
12768;SDS011;6448;48.916;8.990;2024-03-17T02:28:11;3.10;;;2.90;;
12768;SDS011;6448;48.916;8.990;2024-03-17T02:29:12;2.88;;;2.67;;
12768;SDS011;6448;48.916;8.990;2024-03-17T02:30:12;3.00;;;2.80;;
12768;SDS011;6448;48.916;8.990;2024-03-17T02:31:15;2.90;;;2.70;;
12768;SDS011;6448;48.916;8.990;2024-03-17T02:32:17;3.00;;;2.80;;
12768;SDS011;6448;48.916;8.990;2024-03-17T02:33:17;2.90;;;2.70;;
12768;SDS011;6448;48.916;8.990;2024-03-17T02:34:19;2.95;;;2.75;;
12768;SDS011;6448;48.916;8.990;2024-03-17T02:35:21;3.00;;;2.80;;
12768;SDS011;6448;48.916;8.990;2024-03-17T02:36:22;2.97;;;2.77;;
12768;SDS011;6448;48.916;8.990;2024-03-17T02:37:23;2.90;;;2.70;;
12768;SDS011;6448;48.916;8.990;2024-03-17T02:38:26;2.80;;;2.60;;
12768;SDS011;6448;48.916;8.990;2024-03-17T02:39:45;3.20;;;2.90;;
12768;SDS011;6448;48.916;8.990;2024-03-17T02:40:46;3.03;;;2.83;;
12768;SDS011;6448;48.916;8.990;2024-03-17T02:41:47;3.03;;;2.83;;
12768;SDS011;6448;48.916;8.990;2024-03-17T02:42:48;2.97;;;2.78;;
12768;SDS011;6448;48.916;8.990;2024-03-17T02:43:50;3.00;;;2.80;;
12768;SDS011;6448;48.916;8.990;2024-03-17T02:44:51;2.78;;;2.58;;
12768;SDS011;6448;48.916;8.990;2024-03-17T02:45:53;2.53;;;2.42;;
12768;SDS011;6448;48.916;8.990;2024-03-17T02:46:54;2.40;;;2.20;;
12768;SDS011;6448;48.916;8.990;2024-03-17T02:47:54;2.45;;;2.25;;
12768;SDS011;6448;48.916;8.990;2024-03-17T02:48:57;2.30;;;2.20;;
12768;SDS011;6448;48.916;8.990;2024-03-17T02:49:57;2.40;;;2.30;;
12768;SDS011;6448;48.916;8.990;2024-03-17T02:50:59;2.60;;;2.40;;
12768;SDS011;6448;48.916;8.990;2024-03-17T02:52:00;2.40;;;2.30;;
12768;SDS011;6448;48.916;8.990;2024-03-17T02:53:01;2.70;;;2.50;;
12768;SDS011;6448;48.916;8.990;2024-03-17T02:54:04;3.10;;;2.90;;
12768;SDS011;6448;48.916;8.990;2024-03-17T02:55:06;3.45;;;3.20;;
12768;SDS011;6448;48.916;8.990;2024-03-17T02:56:08;3.15;;;2.95;;
12768;SDS011;6448;48.916;8.990;2024-03-17T02:57:09;3.70;;;3.40;;
12768;SDS011;6448;48.916;8.990;2024-03-17T02:58:11;3.53;;;3.30;;
12768;SDS011;6448;48.916;8.990;2024-03-17T02:59:12;3.30;;;3.10;;
12768;SDS011;6448;48.916;8.990;2024-03-17T03:00:13;3.30;;;3.10;;
12768;SDS011;6448;48.916;8.990;2024-03-17T03:01:15;3.10;;;2.90;;
12768;SDS011;6448;48.916;8.990;2024-03-17T03:02:16;2.85;;;2.65;;
12768;SDS011;6448;48.916;8.990;2024-03-17T03:03:19;3.20;;;3.00;;
12768;SDS011;6448;48.916;8.990;2024-03-17T03:04:20;3.00;;;2.80;;
12768;SDS011;6448;48.916;8.990;2024-03-17T03:05:22;3.00;;;2.80;;
12768;SDS011;6448;48.916;8.990;2024-03-17T03:06:22;3.10;;;2.90;;
12768;SDS011;6448;48.916;8.990;2024-03-17T03:07:25;3.10;;;2.90;;
12768;SDS011;6448;48.916;8.990;2024-03-17T03:08:26;2.92;;;2.72;;
12768;SDS011;6448;48.916;8.990;2024-03-17T03:09:29;3.15;;;2.95;;
12768;SDS011;6448;48.916;8.990;2024-03-17T03:10:32;2.88;;;2.67;;
12768;SDS011;6448;48.916;8.990;2024-03-17T03:11:35;2.97;;;2.78;;
12768;SDS011;6448;48.916;8.990;2024-03-17T03:12:37;3.37;;;3.17;;
12768;SDS011;6448;48.916;8.990;2024-03-17T03:13:38;3.10;;;2.90;;
12768;SDS011;6448;48.916;8.990;2024-03-17T03:14:39;3.13;;;2.92;;
12768;SDS011;6448;48.916;8.990;2024-03-17T03:15:41;3.08;;;2.88;;
12768;SDS011;6448;48.916;8.990;2024-03-17T03:16:42;2.97;;;2.77;;
12768;SDS011;6448;48.916;8.990;2024-03-17T03:17:44;2.97;;;2.78;;
12768;SDS011;6448;48.916;8.990;2024-03-17T03:18:44;3.20;;;3.00;;
12768;SDS011;6448;48.916;8.990;2024-03-17T03:19:46;3.30;;;3.10;;
12768;SDS011;6448;48.916;8.990;2024-03-17T03:20:50;3.40;;;3.20;;
12768;SDS011;6448;48.916;8.990;2024-03-17T03:21:52;3.53;;;3.33;;
12768;SDS011;6448;48.916;8.990;2024-03-17T03:22:53;3.22;;;3.03;;
12768;SDS011;6448;48.916;8.990;2024-03-17T03:23:54;2.83;;;2.63;;
12768;SDS011;6448;48.916;8.990;2024-03-17T03:24:57;3.00;;;2.80;;
12768;SDS011;6448;48.916;8.990;2024-03-17T03:25:58;2.88;;;2.67;;
12768;SDS011;6448;48.916;8.990;2024-03-17T03:27:00;2.90;;;2.70;;
12768;SDS011;6448;48.916;8.990;2024-03-17T03:28:02;2.57;;;2.47;;
12768;SDS011;6448;48.916;8.990;2024-03-17T03:29:03;3.03;;;2.83;;
12768;SDS011;6448;48.916;8.990;2024-03-17T03:30:05;2.70;;;2.50;;
12768;SDS011;6448;48.916;8.990;2024-03-17T03:31:10;2.67;;;2.58;;
12768;SDS011;6448;48.916;8.990;2024-03-17T03:32:13;3.00;;;2.80;;
12768;SDS011;6448;48.916;8.990;2024-03-17T03:33:14;3.08;;;2.78;;
12768;SDS011;6448;48.916;8.990;2024-03-17T03:34:15;2.85;;;2.65;;
12768;SDS011;6448;48.916;8.990;2024-03-17T03:35:17;3.00;;;2.80;;
12768;SDS011;6448;48.916;8.990;2024-03-17T03:36:17;2.60;;;2.40;;
12768;SDS011;6448;48.916;8.990;2024-03-17T03:37:18;2.90;;;2.70;;
12768;SDS011;6448;48.916;8.990;2024-03-17T03:38:21;4.75;;;2.53;;
12768;SDS011;6448;48.916;8.990;2024-03-17T03:39:22;2.40;;;2.30;;
12768;SDS011;6448;48.916;8.990;2024-03-17T03:40:27;2.92;;;2.67;;
12768;SDS011;6448;48.916;8.990;2024-03-17T03:41:28;3.00;;;2.80;;
12768;SDS011;6448;48.916;8.990;2024-03-17T03:42:29;2.70;;;2.58;;
12768;SDS011;6448;48.916;8.990;2024-03-17T03:43:30;2.90;;;2.70;;
12768;SDS011;6448;48.916;8.990;2024-03-17T03:44:31;3.03;;;2.83;;
12768;SDS011;6448;48.916;8.990;2024-03-17T03:45:33;2.80;;;2.60;;
12768;SDS011;6448;48.916;8.990;2024-03-17T03:46:35;2.50;;;2.40;;
12768;SDS011;6448;48.916;8.990;2024-03-17T03:47:37;2.78;;;2.58;;
12768;SDS011;6448;48.916;8.990;2024-03-17T03:48:38;2.63;;;2.42;;
12768;SDS011;6448;48.916;8.990;2024-03-17T03:49:39;2.60;;;2.40;;
12768;SDS011;6448;48.916;8.990;2024-03-17T03:50:40;2.30;;;2.20;;
12768;SDS011;6448;48.916;8.990;2024-03-17T03:51:42;2.75;;;2.55;;
12768;SDS011;6448;48.916;8.990;2024-03-17T03:52:43;2.67;;;2.47;;
12768;SDS011;6448;48.916;8.990;2024-03-17T03:53:45;2.50;;;2.40;;
12768;SDS011;6448;48.916;8.990;2024-03-17T03:54:46;2.72;;;2.58;;
12768;SDS011;6448;48.916;8.990;2024-03-17T03:55:49;2.70;;;2.50;;
12768;SDS011;6448;48.916;8.990;2024-03-17T03:56:50;2.70;;;2.50;;
12768;SDS011;6448;48.916;8.990;2024-03-17T03:57:50;2.70;;;2.60;;
12768;SDS011;6448;48.916;8.990;2024-03-17T03:58:53;2.72;;;2.53;;
12768;SDS011;6448;48.916;8.990;2024-03-17T03:59:54;2.80;;;2.60;;
12768;SDS011;6448;48.916;8.990;2024-03-17T04:00:56;2.72;;;2.53;;
12768;SDS011;6448;48.916;8.990;2024-03-17T04:01:56;2.63;;;2.42;;
12768;SDS011;6448;48.916;8.990;2024-03-17T04:02:58;3.10;;;2.90;;
12768;SDS011;6448;48.916;8.990;2024-03-17T04:04:00;2.90;;;2.70;;
12768;SDS011;6448;48.916;8.990;2024-03-17T04:05:03;3.00;;;2.80;;
12768;SDS011;6448;48.916;8.990;2024-03-17T04:06:05;2.90;;;2.70;;
12768;SDS011;6448;48.916;8.990;2024-03-17T04:07:08;2.97;;;2.77;;
12768;SDS011;6448;48.916;8.990;2024-03-17T04:08:09;3.00;;;2.80;;
12768;SDS011;6448;48.916;8.990;2024-03-17T04:09:09;3.00;;;2.80;;
12768;SDS011;6448;48.916;8.990;2024-03-17T04:10:11;3.00;;;2.80;;
12768;SDS011;6448;48.916;8.990;2024-03-17T04:11:14;2.90;;;2.70;;
12768;SDS011;6448;48.916;8.990;2024-03-17T04:12:16;3.15;;;2.95;;
12768;SDS011;6448;48.916;8.990;2024-03-17T04:13:16;3.17;;;2.97;;
12768;SDS011;6448;48.916;8.990;2024-03-17T04:14:18;3.10;;;2.90;;
12768;SDS011;6448;48.916;8.990;2024-03-17T04:15:20;2.90;;;2.70;;
12768;SDS011;6448;48.916;8.990;2024-03-17T04:16:21;3.13;;;2.92;;
12768;SDS011;6448;48.916;8.990;2024-03-17T04:17:23;2.90;;;2.70;;
12768;SDS011;6448;48.916;8.990;2024-03-17T04:18:24;3.40;;;3.20;;
12768;SDS011;6448;48.916;8.990;2024-03-17T04:19:25;3.20;;;3.00;;
12768;SDS011;6448;48.916;8.990;2024-03-17T04:20:27;3.30;;;3.10;;
12768;SDS011;6448;48.916;8.990;2024-03-17T04:21:27;3.40;;;3.20;;
12768;SDS011;6448;48.916;8.990;2024-03-17T04:22:29;3.30;;;3.10;;
12768;SDS011;6448;48.916;8.990;2024-03-17T04:23:30;3.13;;;2.92;;
12768;SDS011;6448;48.916;8.990;2024-03-17T04:24:32;3.15;;;2.95;;
12768;SDS011;6448;48.916;8.990;2024-03-17T04:25:34;3.25;;;3.05;;
12768;SDS011;6448;48.916;8.990;2024-03-17T04:26:36;3.50;;;3.30;;
12768;SDS011;6448;48.916;8.990;2024-03-17T04:27:38;3.40;;;3.20;;
12768;SDS011;6448;48.916;8.990;2024-03-17T04:28:39;3.60;;;3.40;;
12768;SDS011;6448;48.916;8.990;2024-03-17T04:29:40;3.78;;;3.47;;
12768;SDS011;6448;48.916;8.990;2024-03-17T04:30:42;3.45;;;3.25;;
12768;SDS011;6448;48.916;8.990;2024-03-17T04:31:42;3.35;;;3.15;;
12768;SDS011;6448;48.916;8.990;2024-03-17T04:32:48;3.60;;;3.40;;
12768;SDS011;6448;48.916;8.990;2024-03-17T04:33:50;3.40;;;3.20;;
12768;SDS011;6448;48.916;8.990;2024-03-17T04:34:51;3.50;;;3.30;;
12768;SDS011;6448;48.916;8.990;2024-03-17T04:35:52;3.15;;;2.95;;
12768;SDS011;6448;48.916;8.990;2024-03-17T04:36:53;3.43;;;3.23;;
12768;SDS011;6448;48.916;8.990;2024-03-17T04:37:55;3.20;;;3.00;;
12768;SDS011;6448;48.916;8.990;2024-03-17T04:38:57;3.20;;;3.00;;
12768;SDS011;6448;48.916;8.990;2024-03-17T04:39:58;3.00;;;2.80;;
12768;SDS011;6448;48.916;8.990;2024-03-17T04:41:02;3.20;;;3.00;;
12768;SDS011;6448;48.916;8.990;2024-03-17T04:42:09;3.28;;;3.08;;
12768;SDS011;6448;48.916;8.990;2024-03-17T04:43:11;3.40;;;3.20;;
12768;SDS011;6448;48.916;8.990;2024-03-17T04:44:12;3.40;;;3.20;;
12768;SDS011;6448;48.916;8.990;2024-03-17T04:45:14;3.25;;;3.05;;
12768;SDS011;6448;48.916;8.990;2024-03-17T04:46:15;3.40;;;3.20;;
12768;SDS011;6448;48.916;8.990;2024-03-17T04:47:17;3.40;;;3.10;;
12768;SDS011;6448;48.916;8.990;2024-03-17T04:48:17;3.38;;;3.17;;
12768;SDS011;6448;48.916;8.990;2024-03-17T04:49:19;3.75;;;3.55;;
12768;SDS011;6448;48.916;8.990;2024-03-17T04:50:20;4.03;;;3.72;;
12768;SDS011;6448;48.916;8.990;2024-03-17T04:51:22;3.92;;;3.67;;
12768;SDS011;6448;48.916;8.990;2024-03-17T04:52:23;4.10;;;3.80;;
12768;SDS011;6448;48.916;8.990;2024-03-17T04:53:26;3.97;;;3.72;;
12768;SDS011;6448;48.916;8.990;2024-03-17T04:54:26;3.60;;;3.40;;
12768;SDS011;6448;48.916;8.990;2024-03-17T04:55:28;4.28;;;3.97;;
12768;SDS011;6448;48.916;8.990;2024-03-17T04:56:29;4.25;;;3.95;;
12768;SDS011;6448;48.916;8.990;2024-03-17T04:57:32;3.78;;;3.58;;
12768;SDS011;6448;48.916;8.990;2024-03-17T04:58:33;3.97;;;3.67;;
12768;SDS011;6448;48.916;8.990;2024-03-17T04:59:36;3.67;;;3.47;;
12768;SDS011;6448;48.916;8.990;2024-03-17T05:00:38;3.78;;;3.53;;
12768;SDS011;6448;48.916;8.990;2024-03-17T05:01:39;3.40;;;3.20;;
12768;SDS011;6448;48.916;8.990;2024-03-17T05:02:41;3.42;;;3.22;;
12768;SDS011;6448;48.916;8.990;2024-03-17T05:03:41;3.35;;;3.15;;
12768;SDS011;6448;48.916;8.990;2024-03-17T05:04:43;3.35;;;3.15;;
12768;SDS011;6448;48.916;8.990;2024-03-17T05:05:44;3.03;;;2.83;;
12768;SDS011;6448;48.916;8.990;2024-03-17T05:06:46;3.50;;;3.20;;
12768;SDS011;6448;48.916;8.990;2024-03-17T05:07:49;2.90;;;2.70;;
12768;SDS011;6448;48.916;8.990;2024-03-17T05:08:51;2.78;;;2.67;;
12768;SDS011;6448;48.916;8.990;2024-03-17T05:09:52;2.80;;;2.60;;
12768;SDS011;6448;48.916;8.990;2024-03-17T05:10:56;2.90;;;2.70;;
12768;SDS011;6448;48.916;8.990;2024-03-17T05:11:57;2.90;;;2.70;;
12768;SDS011;6448;48.916;8.990;2024-03-17T05:13:00;3.20;;;3.00;;
12768;SDS011;6448;48.916;8.990;2024-03-17T05:14:01;3.20;;;3.00;;
12768;SDS011;6448;48.916;8.990;2024-03-17T05:15:03;3.60;;;3.40;;
12768;SDS011;6448;48.916;8.990;2024-03-17T05:16:05;3.70;;;3.50;;
12768;SDS011;6448;48.916;8.990;2024-03-17T05:17:07;3.60;;;3.40;;
12768;SDS011;6448;48.916;8.990;2024-03-17T05:18:08;3.50;;;3.30;;
12768;SDS011;6448;48.916;8.990;2024-03-17T05:19:09;3.63;;;3.42;;
12768;SDS011;6448;48.916;8.990;2024-03-17T05:20:11;3.88;;;3.58;;
12768;SDS011;6448;48.916;8.990;2024-03-17T05:21:13;3.30;;;3.10;;
12768;SDS011;6448;48.916;8.990;2024-03-17T05:22:14;3.33;;;3.13;;
12768;SDS011;6448;48.916;8.990;2024-03-17T05:23:15;3.60;;;3.40;;
12768;SDS011;6448;48.916;8.990;2024-03-17T05:24:16;3.40;;;3.20;;
12768;SDS011;6448;48.916;8.990;2024-03-17T05:25:19;3.30;;;3.10;;
12768;SDS011;6448;48.916;8.990;2024-03-17T05:26:20;3.30;;;3.10;;
12768;SDS011;6448;48.916;8.990;2024-03-17T05:27:22;3.50;;;3.30;;
12768;SDS011;6448;48.916;8.990;2024-03-17T05:28:24;3.17;;;2.97;;
12768;SDS011;6448;48.916;8.990;2024-03-17T05:29:26;3.30;;;3.10;;
12768;SDS011;6448;48.916;8.990;2024-03-17T05:30:28;3.03;;;2.83;;
12768;SDS011;6448;48.916;8.990;2024-03-17T05:31:29;3.20;;;3.00;;
12768;SDS011;6448;48.916;8.990;2024-03-17T05:32:31;3.30;;;3.10;;
12768;SDS011;6448;48.916;8.990;2024-03-17T05:33:33;3.30;;;3.10;;
12768;SDS011;6448;48.916;8.990;2024-03-17T05:34:34;3.58;;;3.38;;
12768;SDS011;6448;48.916;8.990;2024-03-17T05:35:36;3.55;;;3.35;;
12768;SDS011;6448;48.916;8.990;2024-03-17T05:36:38;3.30;;;3.10;;
12768;SDS011;6448;48.916;8.990;2024-03-17T05:37:39;3.47;;;3.28;;
12768;SDS011;6448;48.916;8.990;2024-03-17T05:38:41;3.50;;;3.30;;
12768;SDS011;6448;48.916;8.990;2024-03-17T05:39:41;3.70;;;3.50;;
12768;SDS011;6448;48.916;8.990;2024-03-17T05:40:43;3.72;;;3.53;;
12768;SDS011;6448;48.916;8.990;2024-03-17T05:41:44;3.60;;;3.40;;
12768;SDS011;6448;48.916;8.990;2024-03-17T05:42:48;3.40;;;3.20;;
12768;SDS011;6448;48.916;8.990;2024-03-17T05:43:51;3.50;;;3.30;;
12768;SDS011;6448;48.916;8.990;2024-03-17T05:44:53;3.38;;;3.17;;
12768;SDS011;6448;48.916;8.990;2024-03-17T05:45:54;3.20;;;3.00;;
12768;SDS011;6448;48.916;8.990;2024-03-17T05:46:58;3.20;;;3.00;;
12768;SDS011;6448;48.916;8.990;2024-03-17T05:47:59;3.00;;;2.80;;
12768;SDS011;6448;48.916;8.990;2024-03-17T05:49:05;2.92;;;2.72;;
12768;SDS011;6448;48.916;8.990;2024-03-17T05:50:07;2.60;;;2.50;;
12768;SDS011;6448;48.916;8.990;2024-03-17T05:51:10;2.85;;;2.65;;
12768;SDS011;6448;48.916;8.990;2024-03-17T05:52:12;2.70;;;2.60;;
12768;SDS011;6448;48.916;8.990;2024-03-17T05:53:14;2.70;;;2.60;;
12768;SDS011;6448;48.916;8.990;2024-03-17T05:54:15;2.78;;;2.58;;
12768;SDS011;6448;48.916;8.990;2024-03-17T05:55:17;3.10;;;2.90;;
12768;SDS011;6448;48.916;8.990;2024-03-17T05:56:18;2.72;;;2.63;;
12768;SDS011;6448;48.916;8.990;2024-03-17T05:57:19;3.10;;;2.90;;
12768;SDS011;6448;48.916;8.990;2024-03-17T05:58:20;3.10;;;2.90;;
12768;SDS011;6448;48.916;8.990;2024-03-17T05:59:24;3.25;;;3.05;;
12768;SDS011;6448;48.916;8.990;2024-03-17T06:00:26;3.20;;;3.00;;
12768;SDS011;6448;48.916;8.990;2024-03-17T06:01:26;3.22;;;3.00;;
12768;SDS011;6448;48.916;8.990;2024-03-17T06:02:28;3.10;;;2.90;;
12768;SDS011;6448;48.916;8.990;2024-03-17T06:03:30;3.10;;;2.90;;
12768;SDS011;6448;48.916;8.990;2024-03-17T06:04:31;3.22;;;3.03;;
12768;SDS011;6448;48.916;8.990;2024-03-17T06:05:33;3.70;;;3.50;;
12768;SDS011;6448;48.916;8.990;2024-03-17T06:06:34;3.40;;;3.20;;
12768;SDS011;6448;48.916;8.990;2024-03-17T06:07:36;3.10;;;2.90;;
12768;SDS011;6448;48.916;8.990;2024-03-17T06:08:37;3.00;;;2.80;;
12768;SDS011;6448;48.916;8.990;2024-03-17T06:09:38;3.22;;;3.03;;
12768;SDS011;6448;48.916;8.990;2024-03-17T06:10:42;3.10;;;2.90;;
12768;SDS011;6448;48.916;8.990;2024-03-17T06:11:44;3.30;;;3.10;;
12768;SDS011;6448;48.916;8.990;2024-03-17T06:12:47;3.10;;;2.90;;
12768;SDS011;6448;48.916;8.990;2024-03-17T06:13:48;2.95;;;2.75;;
12768;SDS011;6448;48.916;8.990;2024-03-17T06:14:52;3.13;;;2.92;;
12768;SDS011;6448;48.916;8.990;2024-03-17T06:15:53;3.00;;;2.80;;
12768;SDS011;6448;48.916;8.990;2024-03-17T06:16:54;3.00;;;2.80;;